EGWCEGOS

Guest
Details From EGWC - Cosford
To EGOS - Shawbury
Flight Number -
Tags Decoded
Created
Modified
Stats Distance 19 nm / 36 km
Max Altitude 0 ft / 0 m
Waypoints 3
Social Downloads 2
Likes 0
Share VATSIM

Download

Looking for another format? Having issues loading an existing format? Contact us
Advertisement - Login to hide

Notes

Decoded

Route

EGWC KEPAD EGOS

ID Type Via Altitude Latitude Longitude Leg Dist Tot Dist Heading (true) Name
O EGWC APT - 0 ft / 0 m 52.63772˚ -2.31271˚ - 0 nm - RAF Cosford
KEPAD FIX - 0 ft / 0 m 52.80972˚ -2.47889˚ 11 nm 11 nm 330° / 330° -
O EGOS APT - 0 ft / 0 m 52.79269˚ -2.67668˚ 7 nm 19 nm 262° / 262° -

Altitude Profile

Advertisement - Login to hide

EGWC

Details ICAO EGWC
Name RAF Cosford
Region United Kingdom
Timezone Europe/London (UTC+0.0)
Stats Elevation 272 ft / 83 m (AMSL)
Location 52.640541° -2.305177°
Runways 1
Magnetic Variation 1.370° W

METAR

EGWC 140750Z 23010KT 9999 FEW018 02/01 Q0990 BLACKBLU

Decode

TAF

Not found

Departure Runways

ID Width Length Bearing (true) Bearing (mag) Surface Threshold Offset Overrun Length
06 151 ft / 46 m 3,765 ft / 1,148 m 58.02° 59.39° Asphalt 66 ft / 20 m 0 ft / 0 m
24 151 ft / 46 m 3,765 ft / 1,148 m 238.03° 239.40° Asphalt 108 ft / 33 m 0 ft / 0 m

EGOS

Details ICAO EGOS
Name RAF Shawbury
Region United Kingdom
Timezone Europe/London (UTC+0.0)
Stats Elevation 249 ft / 76 m (AMSL)
Location 52.795351° -2.668726°
Runways 2
Magnetic Variation 1.527° W

METAR

EGOS 140750Z 24011KT 9999 FEW018 03/M00 Q0988 BLU NOSIG

Decode

TAF

Not found

Destination Runways

ID Width Length Bearing (true) Bearing (mag) Surface Threshold Offset Overrun Length
05 151 ft / 46 m 4,505 ft / 1,373 m 44.71° 46.24° Asphalt 0 ft / 0 m 13 ft / 4 m
18 151 ft / 46 m 6,004 ft / 1,830 m 179.89° 181.42° Asphalt 0 ft / 0 m 0 ft / 0 m
23 151 ft / 46 m 4,505 ft / 1,373 m 224.73° 226.26° Asphalt 0 ft / 0 m 0 ft / 0 m
36 151 ft / 46 m 6,004 ft / 1,830 m 359.89° 1.42° Asphalt 0 ft / 0 m 16 ft / 5 m

Approach Navaids

Runway Type Ident Frequency Range Bearing (true) Bearing (mag) Slope Elevation
18 Localiser SY 108.70 MHz 18 nm / 33 km 184.50° 186.03° - 249 ft / 76 m (AMSL)
18 Glidescope SY 108.70 MHz 10 nm / 19 km 179.89° 181.42° 3.00° 249 ft / 76 m (AMSL)

Popular Alternatives